sensor_id;sensor_type;location;lat;lon;timestamp;pressure;altitude;pressure_sealevel;temperature;humidity
20424;BME280;10371;49.042;8.002;2023-03-16T00:00:30;100306.69;;;0.88;100.00
20424;BME280;10371;49.042;8.002;2023-03-16T00:01:31;100304.22;;;0.85;100.00
20424;BME280;10371;49.042;8.002;2023-03-16T00:02:32;100298.38;;;0.82;100.00
20424;BME280;10371;49.042;8.002;2023-03-16T00:03:32;100302.56;;;0.84;100.00
20424;BME280;10371;49.042;8.002;2023-03-16T00:04:33;100300.81;;;0.86;100.00
20424;BME280;10371;49.042;8.002;2023-03-16T00:05:37;100304.22;;;0.85;100.00
20424;BME280;10371;49.042;8.002;2023-03-16T00:06:37;100300.81;;;0.86;100.00
20424;BME280;10371;49.042;8.002;2023-03-16T00:07:37;100300.81;;;0.86;100.00
20424;BME280;10371;49.042;8.002;2023-03-16T00:08:38;100305.06;;;0.86;100.00
20424;BME280;10371;49.042;8.002;2023-03-16T00:09:39;100301.56;;;0.88;100.00
20424;BME280;10371;49.042;8.002;2023-03-16T00:10:43;100305.84;;;0.88;100.00
20424;BME280;10371;49.042;8.002;2023-03-16T00:11:45;100307.53;;;0.89;100.00
20424;BME280;10371;49.042;8.002;2023-03-16T00:12:46;100303.38;;;0.86;100.00
20424;BME280;10371;49.042;8.002;2023-03-16T00:13:46;100312.66;;;0.89;100.00
20424;BME280;10371;49.042;8.002;2023-03-16T00:14:47;100312.66;;;0.89;100.00
20424;BME280;10371;49.042;8.002;2023-03-16T00:15:53;100312.66;;;0.89;100.00
20424;BME280;10371;49.042;8.002;2023-03-16T00:16:53;100316.94;;;0.88;100.00
20424;BME280;10371;49.042;8.002;2023-03-16T00:17:54;100312.66;;;0.89;100.00
20424;BME280;10371;49.042;8.002;2023-03-16T00:18:54;100315.31;;;0.86;100.00
20424;BME280;10371;49.042;8.002;2023-03-16T00:19:55;100315.31;;;0.86;100.00
20424;BME280;10371;49.042;8.002;2023-03-16T00:20:59;100317.88;;;0.86;100.00
20424;BME280;10371;49.042;8.002;2023-03-16T00:22:01;100317.03;;;0.85;100.00
20424;BME280;10371;49.042;8.002;2023-03-16T00:23:01;100308.41;;;0.88;100.00
20424;BME280;10371;49.042;8.002;2023-03-16T00:24:01;100312.63;;;0.91;100.00
20424;BME280;10371;49.042;8.002;2023-03-16T00:25:03;100308.38;;;0.89;100.00
20424;BME280;10371;49.042;8.002;2023-03-16T00:26:06;100311.69;;;0.93;100.00
20424;BME280;10371;49.042;8.002;2023-03-16T00:27:07;100303.16;;;0.93;100.00
20424;BME280;10371;49.042;8.002;2023-03-16T00:28:08;100309.03;;;0.95;100.00
20424;BME280;10371;49.042;8.002;2023-03-16T00:29:08;100308.97;;;0.98;100.00
20424;BME280;10371;49.042;8.002;2023-03-16T00:30:11;100303.88;;;0.96;100.00
20424;BME280;10371;49.042;8.002;2023-03-16T00:31:12;100312.41;;;0.97;100.00
20424;BME280;10371;49.042;8.002;2023-03-16T00:32:17;100308.19;;;0.96;100.00
20424;BME280;10371;49.042;8.002;2023-03-16T00:33:18;100309.91;;;0.95;100.00
20424;BME280;10371;49.042;8.002;2023-03-16T00:34:18;100304.72;;;0.97;100.00
20424;BME280;10371;49.042;8.002;2023-03-16T00:35:18;100300.59;;;0.93;100.00
20424;BME280;10371;49.042;8.002;2023-03-16T00:36:20;100304.97;;;0.89;100.00
20424;BME280;10371;49.042;8.002;2023-03-16T00:37:24;100307.50;;;0.91;100.00
20424;BME280;10371;49.042;8.002;2023-03-16T00:38:25;100303.25;;;0.89;100.00
20424;BME280;10371;49.042;8.002;2023-03-16T00:39:25;100300.81;;;0.86;100.00
20424;BME280;10371;49.042;8.002;2023-03-16T00:40:25;100298.28;;;0.85;100.00
20424;BME280;10371;49.042;8.002;2023-03-16T00:41:26;100300.88;;;0.83;100.00
20424;BME280;10371;49.042;8.002;2023-03-16T00:42:28;100303.44;;;0.83;100.00
20424;BME280;10371;49.042;8.002;2023-03-16T00:43:30;100300.88;;;0.83;100.00
20424;BME280;10371;49.042;8.002;2023-03-16T00:44:30;100297.38;;;0.86;100.00
20424;BME280;10371;49.042;8.002;2023-03-16T00:45:31;100298.16;;;0.88;100.00
20424;BME280;10371;49.042;8.002;2023-03-16T00:46:31;100300.69;;;0.89;100.00
20424;BME280;10371;49.042;8.002;2023-03-16T00:47:33;100305.72;;;0.93;100.00
20424;BME280;10371;49.042;8.002;2023-03-16T00:48:34;100298.84;;;0.93;100.00
20424;BME280;10371;49.042;8.002;2023-03-16T00:49:35;100301.44;;;0.93;100.00
20424;BME280;10371;49.042;8.002;2023-03-16T00:50:39;100300.50;;;0.96;100.00
20424;BME280;10371;49.042;8.002;2023-03-16T00:51:39;100298.72;;;0.98;100.00
20424;BME280;10371;49.042;8.002;2023-03-16T00:52:44;100296.91;;;1.00;100.00
20424;BME280;10371;49.042;8.002;2023-03-16T00:53:45;100293.41;;;1.02;100.00
20424;BME280;10371;49.042;8.002;2023-03-16T00:54:46;100287.41;;;1.03;100.00
20424;BME280;10371;49.042;8.002;2023-03-16T00:55:47;100291.88;;;0.98;100.00
20424;BME280;10371;49.042;8.002;2023-03-16T00:56:47;100290.25;;;0.96;100.00
20424;BME280;10371;49.042;8.002;2023-03-16T00:57:47;100293.59;;;0.98;100.00
20424;BME280;10371;49.042;8.002;2023-03-16T00:58:48;100286.78;;;0.97;100.00
20424;BME280;10371;49.042;8.002;2023-03-16T00:59:48;100287.50;;;1.00;100.00
20424;BME280;10371;49.042;8.002;2023-03-16T01:00:49;100289.28;;;0.98;100.00
20424;BME280;10371;49.042;8.002;2023-03-16T01:01:51;100294.34;;;1.00;100.00
20424;BME280;10371;49.042;8.002;2023-03-16T01:02:52;100291.91;;;0.97;100.00
20424;BME280;10371;49.042;8.002;2023-03-16T01:03:53;100289.41;;;0.95;100.00
20424;BME280;10371;49.042;8.002;2023-03-16T01:04:53;100290.34;;;0.93;100.00
20424;BME280;10371;49.042;8.002;2023-03-16T01:05:54;100289.50;;;0.92;100.00
20424;BME280;10371;49.042;8.002;2023-03-16T01:06:59;100280.09;;;0.93;100.00
20424;BME280;10371;49.042;8.002;2023-03-16T01:07:59;100287.88;;;0.89;100.00
20424;BME280;10371;49.042;8.002;2023-03-16T01:09:01;100282.91;;;0.85;100.00
20424;BME280;10371;49.042;8.002;2023-03-16T01:10:05;100293.13;;;0.86;100.00
20424;BME280;10371;49.042;8.002;2023-03-16T01:11:07;100285.50;;;0.83;100.00
20424;BME280;10371;49.042;8.002;2023-03-16T01:12:12;100284.78;;;0.80;100.00
20424;BME280;10371;49.042;8.002;2023-03-16T01:13:13;100290.78;;;0.79;100.00
20424;BME280;10371;49.042;8.002;2023-03-16T01:14:15;100284.03;;;0.76;100.00
20424;BME280;10371;49.042;8.002;2023-03-16T01:15:15;100280.69;;;0.74;100.00
20424;BME280;10371;49.042;8.002;2023-03-16T01:16:16;100287.47;;;0.75;100.00
20424;BME280;10371;49.042;8.002;2023-03-16T01:17:22;100281.47;;;0.76;100.00
20424;BME280;10371;49.042;8.002;2023-03-16T01:18:22;100285.66;;;0.79;100.00
20424;BME280;10371;49.042;8.002;2023-03-16T01:19:22;100278.03;;;0.77;100.00
20424;BME280;10371;49.042;8.002;2023-03-16T01:20:23;100278.84;;;0.78;100.00
20424;BME280;10371;49.042;8.002;2023-03-16T01:21:23;100279.66;;;0.80;100.00
20424;BME280;10371;49.042;8.002;2023-03-16T01:22:23;100276.94;;;0.84;100.00
20424;BME280;10371;49.042;8.002;2023-03-16T01:23:24;100282.06;;;0.84;100.00
20424;BME280;10371;49.042;8.002;2023-03-16T01:24:24;100282.06;;;0.84;100.00
20424;BME280;10371;49.042;8.002;2023-03-16T01:25:24;100268.47;;;0.82;100.00
20424;BME280;10371;49.042;8.002;2023-03-16T01:26:24;100267.38;;;0.89;100.00
20424;BME280;10371;49.042;8.002;2023-03-16T01:27:25;100261.34;;;0.91;100.00
20424;BME280;10371;49.042;8.002;2023-03-16T01:28:27;100263.81;;;0.94;100.00
20424;BME280;10371;49.042;8.002;2023-03-16T01:29:29;100257.78;;;0.95;100.00
20424;BME280;10371;49.042;8.002;2023-03-16T01:30:29;100254.34;;;0.96;100.00
20424;BME280;10371;49.042;8.002;2023-03-16T01:31:30;100251.72;;;0.97;100.00
20424;BME280;10371;49.042;8.002;2023-03-16T01:32:31;100256.81;;;0.99;100.00
20424;BME280;10371;49.042;8.002;2023-03-16T01:33:32;100255.06;;;0.99;100.00
20424;BME280;10371;49.042;8.002;2023-03-16T01:34:33;100252.47;;;1.01;100.00
20424;BME280;10371;49.042;8.002;2023-03-16T01:35:33;100249.91;;;1.01;100.00
20424;BME280;10371;49.042;8.002;2023-03-16T01:36:33;100250.78;;;1.00;100.00
20424;BME280;10371;49.042;8.002;2023-03-16T01:37:34;100252.56;;;0.98;100.00
20424;BME280;10371;49.042;8.002;2023-03-16T01:38:34;100244.00;;;0.99;100.00
20424;BME280;10371;49.042;8.002;2023-03-16T01:39:34;100246.44;;;1.02;100.00
20424;BME280;10371;49.042;8.002;2023-03-16T01:40:35;100246.47;;;1.00;100.00
20424;BME280;10371;49.042;8.002;2023-03-16T01:41:38;100248.22;;;1.00;100.00
20424;BME280;10371;49.042;8.002;2023-03-16T01:42:45;100251.59;;;1.00;100.00
20424;BME280;10371;49.042;8.002;2023-03-16T01:43:46;100255.03;;;1.01;100.00
20424;BME280;10371;49.042;8.002;2023-03-16T01:44:59;100244.72;;;1.02;100.00
20424;BME280;10371;49.042;8.002;2023-03-16T01:47:04;100249.00;;;1.02;100.00
20424;BME280;10371;49.042;8.002;2023-03-16T01:48:05;100257.50;;;1.04;100.00
20424;BME280;10371;49.042;8.002;2023-03-16T01:49:11;100254.09;;;1.03;100.00
20424;BME280;10371;49.042;8.002;2023-03-16T01:50:11;100250.66;;;1.03;100.00
20424;BME280;10371;49.042;8.002;2023-03-16T01:51:22;100257.59;;;1.01;100.00
20424;BME280;10371;49.042;8.002;2023-03-16T01:52:26;100257.72;;;0.98;100.00
20424;BME280;10371;49.042;8.002;2023-03-16T01:53:28;100262.72;;;1.01;100.00
20424;BME280;10371;49.042;8.002;2023-03-16T01:54:32;100258.44;;;1.01;100.00
20424;BME280;10371;49.042;8.002;2023-03-16T01:55:34;100261.81;;;1.02;100.00
20424;BME280;10371;49.042;8.002;2023-03-16T01:56:42;100260.91;;;1.03;100.00
20424;BME280;10371;49.042;8.002;2023-03-16T01:57:45;100259.97;;;1.05;100.00
20424;BME280;10371;49.042;8.002;2023-03-16T01:58:46;100253.91;;;1.08;100.00
20424;BME280;10371;49.042;8.002;2023-03-16T02:00:49;100252.88;;;1.14;100.00
20424;BME280;10371;49.042;8.002;2023-03-16T02:01:50;100241.66;;;1.16;100.00
20424;BME280;10371;49.042;8.002;2023-03-16T02:02:57;100250.25;;;1.15;100.00
20424;BME280;10371;49.042;8.002;2023-03-16T02:04:09;100240.84;;;1.16;100.00
20424;BME280;10371;49.042;8.002;2023-03-16T02:05:22;100252.03;;;1.13;100.00
20424;BME280;10371;49.042;8.002;2023-03-16T02:06:23;100250.38;;;1.12;100.00
20424;BME280;10371;49.042;8.002;2023-03-16T02:07:24;100246.97;;;1.11;100.00
20424;BME280;10371;49.042;8.002;2023-03-16T02:08:26;100246.97;;;1.11;100.00
20424;BME280;10371;49.042;8.002;2023-03-16T02:09:28;100247.00;;;1.10;100.00
20424;BME280;10371;49.042;8.002;2023-03-16T02:10:28;100244.50;;;1.08;100.00
20424;BME280;10371;49.042;8.002;2023-03-16T02:11:29;100241.31;;;1.02;100.00
20424;BME280;10371;49.042;8.002;2023-03-16T02:12:30;100244.94;;;0.96;100.00
20424;BME280;10371;49.042;8.002;2023-03-16T02:13:31;100239.91;;;0.93;100.00
20424;BME280;10371;49.042;8.002;2023-03-16T02:14:35;100237.50;;;0.88;100.00
20424;BME280;10371;49.042;8.002;2023-03-16T02:15:36;100235.94;;;0.84;100.00
20424;BME280;10371;49.042;8.002;2023-03-16T02:16:37;100239.38;;;0.83;100.00
20424;BME280;10371;49.042;8.002;2023-03-16T02:17:40;100237.81;;;0.79;100.00
20424;BME280;10371;49.042;8.002;2023-03-16T02:18:41;100236.19;;;0.77;100.00
20424;BME280;10371;49.042;8.002;2023-03-16T02:21:16;100243.09;;;0.75;100.00
20424;BME280;10371;49.042;8.002;2023-03-16T02:22:19;100230.28;;;0.75;100.00
20424;BME280;10371;49.042;8.002;2023-03-16T02:23:20;100239.69;;;0.74;100.00
20424;BME280;10371;49.042;8.002;2023-03-16T02:24:23;100242.25;;;0.74;100.00
20424;BME280;10371;49.042;8.002;2023-03-16T02:27:06;100233.00;;;0.70;100.00
20424;BME280;10371;49.042;8.002;2023-03-16T02:28:21;100230.44;;;0.70;100.00
20424;BME280;10371;49.042;8.002;2023-03-16T02:29:48;100230.38;;;0.72;100.00
20424;BME280;10371;49.042;8.002;2023-03-16T02:30:52;100228.72;;;0.71;100.00
20424;BME280;10371;49.042;8.002;2023-03-16T02:31:53;100226.09;;;0.72;100.00
20424;BME280;10371;49.042;8.002;2023-03-16T02:32:54;100221.84;;;0.71;100.00
20424;BME280;10371;49.042;8.002;2023-03-16T02:33:55;100223.59;;;0.71;100.00
20424;BME280;10371;49.042;8.002;2023-03-16T02:34:57;100218.56;;;0.68;100.00
20424;BME280;10371;49.042;8.002;2023-03-16T02:35:58;100213.56;;;0.64;100.00
20424;BME280;10371;49.042;8.002;2023-03-16T02:36:59;100222.06;;;0.65;100.00
20424;BME280;10371;49.042;8.002;2023-03-16T02:38:00;100223.00;;;0.62;100.00
20424;BME280;10371;49.042;8.002;2023-03-16T02:39:00;100214.50;;;0.62;100.00
20424;BME280;10371;49.042;8.002;2023-03-16T02:40:01;100217.88;;;0.62;100.00
20424;BME280;10371;49.042;8.002;2023-03-16T02:41:17;100215.44;;;0.59;100.00
20424;BME280;10371;49.042;8.002;2023-03-16T02:42:20;100207.88;;;0.55;100.00
20424;BME280;10371;49.042;8.002;2023-03-16T02:43:24;100211.94;;;0.62;100.00
20424;BME280;10371;49.042;8.002;2023-03-16T02:44:34;100204.25;;;0.62;100.00
20424;BME280;10371;49.042;8.002;2023-03-16T02:46:42;100198.31;;;0.60;100.00
20424;BME280;10371;49.042;8.002;2023-03-16T02:47:43;100200.88;;;0.60;100.00
20424;BME280;10371;49.042;8.002;2023-03-16T02:49:10;100193.25;;;0.58;100.00
20424;BME280;10371;49.042;8.002;2023-03-16T02:50:12;100193.34;;;0.55;100.00
20424;BME280;10371;49.042;8.002;2023-03-16T02:51:12;100190.78;;;0.55;100.00
20424;BME280;10371;49.042;8.002;2023-03-16T02:52:13;100197.69;;;0.53;100.00
20424;BME280;10371;49.042;8.002;2023-03-16T02:53:14;100195.97;;;0.54;100.00
20424;BME280;10371;49.042;8.002;2023-03-16T02:54:15;100199.41;;;0.53;100.00
20424;BME280;10371;49.042;8.002;2023-03-16T02:55:15;100201.97;;;0.53;100.00
20424;BME280;10371;49.042;8.002;2023-03-16T02:56:16;100192.50;;;0.55;100.00
20424;BME280;10371;49.042;8.002;2023-03-16T02:57:16;100195.97;;;0.54;100.00
20424;BME280;10371;49.042;8.002;2023-03-16T02:58:16;100194.97;;;0.58;100.00
20424;BME280;10371;49.042;8.002;2023-03-16T02:59:17;100195.75;;;0.60;100.00
20424;BME280;10371;49.042;8.002;2023-03-16T03:00:17;100194.13;;;0.57;100.00
20424;BME280;10371;49.042;8.002;2023-03-16T03:01:18;100193.41;;;0.54;100.00
20424;BME280;10371;49.042;8.002;2023-03-16T03:02:18;100196.84;;;0.53;100.00
20424;BME280;10371;49.042;8.002;2023-03-16T03:03:18;100190.97;;;0.51;100.00
20424;BME280;10371;49.042;8.002;2023-03-16T03:04:19;100190.84;;;0.54;100.00
20424;BME280;10371;49.042;8.002;2023-03-16T03:05:22;100190.84;;;0.54;100.00
20424;BME280;10371;49.042;8.002;2023-03-16T03:06:23;100194.28;;;0.53;100.00
20424;BME280;10371;49.042;8.002;2023-03-16T03:07:25;100186.66;;;0.51;100.00
20424;BME280;10371;49.042;8.002;2023-03-16T03:08:30;100191.72;;;0.53;100.00
20424;BME280;10371;49.042;8.002;2023-03-16T03:09:32;100191.81;;;0.50;100.00
20424;BME280;10371;49.042;8.002;2023-03-16T03:10:32;100191.72;;;0.53;100.00
20424;BME280;10371;49.042;8.002;2023-03-16T03:11:33;100190.03;;;0.53;100.00
20424;BME280;10371;49.042;8.002;2023-03-16T03:12:33;100194.25;;;0.54;100.00
20424;BME280;10371;49.042;8.002;2023-03-16T03:13:34;100187.38;;;0.55;100.00
20424;BME280;10371;49.042;8.002;2023-03-16T03:14:38;100187.34;;;0.56;100.00
20424;BME280;10371;49.042;8.002;2023-03-16T03:15:38;100183.16;;;0.54;100.00
20424;BME280;10371;49.042;8.002;2023-03-16T03:16:39;100179.00;;;0.50;100.00
20424;BME280;10371;49.042;8.002;2023-03-16T03:17:39;100185.94;;;0.48;100.00
20424;BME280;10371;49.042;8.002;2023-03-16T03:18:42;100180.84;;;0.46;100.00
20424;BME280;10371;49.042;8.002;2023-03-16T03:19:42;100180.06;;;0.44;100.00
20424;BME280;10371;49.042;8.002;2023-03-16T03:20:43;100178.44;;;0.41;100.00
20424;BME280;10371;49.042;8.002;2023-03-16T03:21:43;100184.34;;;0.43;100.00
20424;BME280;10371;49.042;8.002;2023-03-16T03:22:46;100175.88;;;0.41;100.00
20424;BME280;10371;49.042;8.002;2023-03-16T03:23:47;100176.78;;;0.40;100.00
20424;BME280;10371;49.042;8.002;2023-03-16T03:24:47;100175.03;;;0.41;100.00
20424;BME280;10371;49.042;8.002;2023-03-16T03:26:48;100172.53;;;0.39;100.00
20424;BME280;10371;49.042;8.002;2023-03-16T03:27:49;100168.19;;;0.41;100.00
20424;BME280;10371;49.042;8.002;2023-03-16T03:28:50;100169.91;;;0.41;100.00
20424;BME280;10371;49.042;8.002;2023-03-16T03:29:51;100170.72;;;0.43;100.00
20424;BME280;10371;49.042;8.002;2023-03-16T03:30:51;100175.09;;;0.39;100.00
20424;BME280;10371;49.042;8.002;2023-03-16T03:31:52;100171.75;;;0.37;100.00
20424;BME280;10371;49.042;8.002;2023-03-16T03:32:52;100176.16;;;0.34;100.00
20424;BME280;10371;49.042;8.002;2023-03-16T03:33:53;100169.41;;;0.31;100.00
20424;BME280;10371;49.042;8.002;2023-03-16T03:34:53;100178.72;;;0.34;100.00
20424;BME280;10371;49.042;8.002;2023-03-16T03:35:57;100179.53;;;0.34;100.00
20424;BME280;10371;49.042;8.002;2023-03-16T03:36:58;100177.00;;;0.33;100.00
20424;BME280;10371;49.042;8.002;2023-03-16T03:37:58;100169.28;;;0.34;100.00
20424;BME280;10371;49.042;8.002;2023-03-16T03:38:59;100177.84;;;0.33;100.00
20424;BME280;10371;49.042;8.002;2023-03-16T03:40:02;100175.22;;;0.36;100.00
20424;BME280;10371;49.042;8.002;2023-03-16T03:41:10;100173.59;;;0.34;100.00
20424;BME280;10371;49.042;8.002;2023-03-16T03:42:11;100169.28;;;0.34;100.00
20424;BME280;10371;49.042;8.002;2023-03-16T03:43:12;100168.50;;;0.32;100.00
20424;BME280;10371;49.042;8.002;2023-03-16T03:44:12;100180.34;;;0.36;100.00
20424;BME280;10371;49.042;8.002;2023-03-16T03:45:13;100176.97;;;0.34;100.00
20424;BME280;10371;49.042;8.002;2023-03-16T03:46:13;100177.81;;;0.35;100.00
20424;BME280;10371;49.042;8.002;2023-03-16T03:47:14;100174.41;;;0.34;100.00
20424;BME280;10371;49.042;8.002;2023-03-16T03:48:14;100173.53;;;0.35;100.00
20424;BME280;10371;49.042;8.002;2023-03-16T03:49:14;100170.13;;;0.35;100.00
20424;BME280;10371;49.042;8.002;2023-03-16T03:50:15;100180.34;;;0.36;100.00
20424;BME280;10371;49.042;8.002;2023-03-16T03:51:15;100183.72;;;0.37;100.00
20424;BME280;10371;49.042;8.002;2023-03-16T03:52:15;100171.91;;;0.33;100.00
20424;BME280;10371;49.042;8.002;2023-03-16T03:53:17;100177.81;;;0.35;100.00
20424;BME280;10371;49.042;8.002;2023-03-16T03:54:17;100177.84;;;0.33;100.00
20424;BME280;10371;49.042;8.002;2023-03-16T03:55:17;100168.50;;;0.32;100.00
20424;BME280;10371;49.042;8.002;2023-03-16T03:56:18;100176.16;;;0.34;100.00
20424;BME280;10371;49.042;8.002;2023-03-16T03:57:18;100177.84;;;0.33;100.00
20424;BME280;10371;49.042;8.002;2023-03-16T03:58:18;100176.19;;;0.32;100.00
20424;BME280;10371;49.042;8.002;2023-03-16T03:59:18;100173.75;;;0.28;100.00
20424;BME280;10371;49.042;8.002;2023-03-16T04:00:19;100176.31;;;0.28;100.00
20424;BME280;10371;49.042;8.002;2023-03-16T04:01:20;100171.38;;;0.23;100.00
20424;BME280;10371;49.042;8.002;2023-03-16T04:02:20;100174.75;;;0.24;100.00
20424;BME280;10371;49.042;8.002;2023-03-16T04:03:20;100186.72;;;0.23;100.00
20424;BME280;10371;49.042;8.002;2023-03-16T04:04:21;100182.47;;;0.22;100.00
20424;BME280;10371;49.042;8.002;2023-03-16T04:05:21;100183.38;;;0.21;100.00
20424;BME280;10371;49.042;8.002;2023-03-16T04:06:21;100186.72;;;0.23;100.00
20424;BME280;10371;49.042;8.002;2023-03-16T04:07:22;100185.97;;;0.19;100.00
20424;BME280;10371;49.042;8.002;2023-03-16T04:08:22;100185.94;;;0.21;100.00
20424;BME280;10371;49.042;8.002;2023-03-16T04:09:22;100174.91;;;0.19;100.00
20424;BME280;10371;49.042;8.002;2023-03-16T04:10:24;100179.16;;;0.20;100.00
20424;BME280;10371;49.042;8.002;2023-03-16T04:11:24;100184.28;;;0.20;100.00
20424;BME280;10371;49.042;8.002;2023-03-16T04:12:25;100180.81;;;0.21;100.00
20424;BME280;10371;49.042;8.002;2023-03-16T04:13:25;100190.16;;;0.22;100.00
20424;BME280;10371;49.042;8.002;2023-03-16T04:14:26;100186.72;;;0.23;100.00
20424;BME280;10371;49.042;8.002;2023-03-16T04:15:27;100184.22;;;0.21;100.00
20424;BME280;10371;49.042;8.002;2023-03-16T04:16:27;100183.47;;;0.18;100.00
20424;BME280;10371;49.042;8.002;2023-03-16T04:17:27;100176.88;;;0.11;100.00
20424;BME280;10371;49.042;8.002;2023-03-16T04:18:28;100181.03;;;0.15;100.00
20424;BME280;10371;49.042;8.002;2023-03-16T04:19:29;100186.94;;;0.17;100.00
20424;BME280;10371;49.042;8.002;2023-03-16T04:20:29;100175.94;;;0.13;100.00
20424;BME280;10371;49.042;8.002;2023-03-16T04:21:30;100183.59;;;0.15;100.00
20424;BME280;10371;49.042;8.002;2023-03-16T04:22:31;100177.66;;;0.13;100.00
20424;BME280;10371;49.042;8.002;2023-03-16T04:23:31;100178.50;;;0.13;100.00
20424;BME280;10371;49.042;8.002;2023-03-16T04:24:34;100166.69;;;0.09;100.00
20424;BME280;10371;49.042;8.002;2023-03-16T04:25:35;100181.88;;;0.14;100.00
20424;BME280;10371;49.042;8.002;2023-03-16T04:26:37;100180.13;;;0.16;100.00
20424;BME280;10371;49.042;8.002;2023-03-16T04:27:38;100169.09;;;0.14;100.00
20424;BME280;10371;49.042;8.002;2023-03-16T04:28:38;100177.63;;;0.14;100.00
20424;BME280;10371;49.042;8.002;2023-03-16T04:29:38;100173.34;;;0.15;100.00
20424;BME280;10371;49.042;8.002;2023-03-16T04:30:38;100173.25;;;0.18;100.00
20424;BME280;10371;49.042;8.002;2023-03-16T04:31:39;100171.56;;;0.17;100.00
20424;BME280;10371;49.042;8.002;2023-03-16T04:32:41;100175.91;;;0.15;100.00
20424;BME280;10371;49.042;8.002;2023-03-16T04:33:41;100170.88;;;0.12;100.00
20424;BME280;10371;49.042;8.002;2023-03-16T04:34:42;100174.13;;;0.17;100.00
20424;BME280;10371;49.042;8.002;2023-03-16T04:35:42;100172.63;;;0.11;100.00
20424;BME280;10371;49.042;8.002;2023-03-16T04:36:45;100175.09;;;0.13;100.00
20424;BME280;10371;49.042;8.002;2023-03-16T04:37:45;100169.09;;;0.14;100.00
20424;BME280;10371;49.042;8.002;2023-03-16T04:38:45;100166.53;;;0.14;100.00
20424;BME280;10371;49.042;8.002;2023-03-16T04:39:45;100165.88;;;0.09;100.00
20424;BME280;10371;49.042;8.002;2023-03-16T04:40:46;100169.09;;;0.14;100.00
20424;BME280;10371;49.042;8.002;2023-03-16T04:41:46;100169.16;;;0.12;100.00
20424;BME280;10371;49.042;8.002;2023-03-16T04:42:46;100156.59;;;0.05;100.00
20424;BME280;10371;49.042;8.002;2023-03-16T04:43:47;100166.72;;;0.08;100.00
20424;BME280;10371;49.042;8.002;2023-03-16T04:44:47;100165.16;;;0.04;100.00
20424;BME280;10371;49.042;8.002;2023-03-16T04:45:47;100162.53;;;0.05;100.00
20424;BME280;10371;49.042;8.002;2023-03-16T04:46:48;100163.41;;;0.06;100.00
20424;BME280;10371;49.042;8.002;2023-03-16T04:47:48;100155.75;;;0.04;100.00
20424;BME280;10371;49.042;8.002;2023-03-16T04:48:51;100160.84;;;0.06;100.00
20424;BME280;10371;49.042;8.002;2023-03-16T04:49:52;100169.19;;;0.11;100.00
20424;BME280;10371;49.042;8.002;2023-03-16T04:50:52;100161.50;;;0.11;100.00
20424;BME280;10371;49.042;8.002;2023-03-16T04:51:53;100154.69;;;0.11;100.00
20424;BME280;10371;49.042;8.002;2023-03-16T04:52:53;100161.47;;;0.12;100.00
20424;BME280;10371;49.042;8.002;2023-03-16T04:53:53;100160.66;;;0.12;100.00
20424;BME280;10371;49.042;8.002;2023-03-16T04:54:54;100156.22;;;0.17;100.00
20424;BME280;10371;49.042;8.002;2023-03-16T04:55:54;100155.34;;;0.16;100.00
20424;BME280;10371;49.042;8.002;2023-03-16T04:56:54;100163.19;;;0.12;100.00
20424;BME280;10371;49.042;8.002;2023-03-16T04:57:55;100152.97;;;0.12;100.00
20424;BME280;10371;49.042;8.002;2023-03-16T04:58:55;100156.50;;;0.08;100.00
20424;BME280;10371;49.042;8.002;2023-03-16T04:59:58;100156.47;;;0.09;100.00
20424;BME280;10371;49.042;8.002;2023-03-16T05:00:58;100154.72;;;0.10;100.00
20424;BME280;10371;49.042;8.002;2023-03-16T05:01:58;100158.13;;;0.10;100.00
20424;BME280;10371;49.042;8.002;2023-03-16T05:02:58;100154.72;;;0.10;100.00
20424;BME280;10371;49.042;8.002;2023-03-16T05:03:59;100153.91;;;0.09;100.00
20424;BME280;10371;49.042;8.002;2023-03-16T05:04:59;100151.28;;;0.11;100.00
20424;BME280;10371;49.042;8.002;2023-03-16T05:05:59;100144.38;;;0.13;100.00
20424;BME280;10371;49.042;8.002;2023-03-16T05:07:00;100146.91;;;0.14;100.00
20424;BME280;10371;49.042;8.002;2023-03-16T05:08:00;100150.34;;;0.13;100.00
20424;BME280;10371;49.042;8.002;2023-03-16T05:09:00;100146.06;;;0.14;100.00
20424;BME280;10371;49.042;8.002;2023-03-16T05:10:01;100152.88;;;0.15;100.00
20424;BME280;10371;49.042;8.002;2023-03-16T05:11:01;100147.78;;;0.13;100.00
20424;BME280;10371;49.042;8.002;2023-03-16T05:12:01;100142.63;;;0.15;100.00
20424;BME280;10371;49.042;8.002;2023-03-16T05:13:02;100147.84;;;0.12;100.00
20424;BME280;10371;49.042;8.002;2023-03-16T05:14:03;100145.28;;;0.12;100.00
20424;BME280;10371;49.042;8.002;2023-03-16T05:15:04;100147.75;;;0.15;100.00
20424;BME280;10371;49.042;8.002;2023-03-16T05:16:05;100154.63;;;0.13;100.00
20424;BME280;10371;49.042;8.002;2023-03-16T05:17:06;100145.22;;;0.13;100.00
20424;BME280;10371;49.042;8.002;2023-03-16T05:18:06;100129.22;;;0.07;100.00
20424;BME280;10371;49.042;8.002;2023-03-16T05:19:06;100139.41;;;0.08;100.00
20424;BME280;10371;49.042;8.002;2023-03-16T05:20:11;100144.38;;;0.13;100.00
20424;BME280;10371;49.042;8.002;2023-03-16T05:21:12;100136.94;;;0.05;100.00
20424;BME280;10371;49.042;8.002;2023-03-16T05:22:12;100148.72;;;0.11;100.00
20424;BME280;10371;49.042;8.002;2023-03-16T05:23:12;100147.09;;;0.08;100.00
20424;BME280;10371;49.042;8.002;2023-03-16T05:24:13;100143.59;;;0.11;100.00
20424;BME280;10371;49.042;8.002;2023-03-16T05:25:14;100143.56;;;0.12;100.00
20424;BME280;10371;49.042;8.002;2023-03-16T05:26:15;100144.50;;;0.10;100.00
20424;BME280;10371;49.042;8.002;2023-03-16T05:27:15;100146.13;;;0.12;100.00
20424;BME280;10371;49.042;8.002;2023-03-16T05:28:15;100146.16;;;0.11;100.00
20424;BME280;10371;49.042;8.002;2023-03-16T05:29:16;100149.59;;;0.10;100.00